sensor_id;sensor_type;location;lat;lon;timestamp;temperature;humidity
21255;DHT22;10785;50.674;17.954;2023-07-29T00:00:16;18.30;99.90
21255;DHT22;10785;50.674;17.954;2023-07-29T00:02:44;18.30;99.90
21255;DHT22;10785;50.674;17.954;2023-07-29T00:05:13;18.30;99.90
21255;DHT22;10785;50.674;17.954;2023-07-29T00:07:41;18.30;99.90
21255;DHT22;10785;50.674;17.954;2023-07-29T00:10:10;18.30;99.90
21255;DHT22;10785;50.674;17.954;2023-07-29T00:12:39;18.20;99.90
21255;DHT22;10785;50.674;17.954;2023-07-29T00:15:13;18.30;99.90
21255;DHT22;10785;50.674;17.954;2023-07-29T00:17:41;18.30;99.90
21255;DHT22;10785;50.674;17.954;2023-07-29T00:20:13;18.30;99.90
21255;DHT22;10785;50.674;17.954;2023-07-29T00:22:42;18.20;99.90
21255;DHT22;10785;50.674;17.954;2023-07-29T00:25:11;18.30;99.90
21255;DHT22;10785;50.674;17.954;2023-07-29T00:27:40;18.30;99.90
21255;DHT22;10785;50.674;17.954;2023-07-29T00:30:09;18.40;99.90
21255;DHT22;10785;50.674;17.954;2023-07-29T00:32:43;18.30;99.90
21255;DHT22;10785;50.674;17.954;2023-07-29T00:35:12;18.30;99.90
21255;DHT22;10785;50.674;17.954;2023-07-29T00:37:44;18.30;99.90
21255;DHT22;10785;50.674;17.954;2023-07-29T00:40:15;18.30;99.90
21255;DHT22;10785;50.674;17.954;2023-07-29T00:42:44;18.30;99.90
21255;DHT22;10785;50.674;17.954;2023-07-29T00:45:13;18.20;99.90
21255;DHT22;10785;50.674;17.954;2023-07-29T00:47:43;18.10;99.90
21255;DHT22;10785;50.674;17.954;2023-07-29T00:50:13;18.10;99.90
21255;DHT22;10785;50.674;17.954;2023-07-29T00:52:43;18.00;99.90
21255;DHT22;10785;50.674;17.954;2023-07-29T00:55:11;17.90;99.90
21255;DHT22;10785;50.674;17.954;2023-07-29T00:57:39;17.90;99.90
21255;DHT22;10785;50.674;17.954;2023-07-29T01:00:10;17.80;99.90
21255;DHT22;10785;50.674;17.954;2023-07-29T01:02:39;17.80;99.90
21255;DHT22;10785;50.674;17.954;2023-07-29T01:05:12;17.80;99.90
21255;DHT22;10785;50.674;17.954;2023-07-29T01:07:49;17.70;99.90
21255;DHT22;10785;50.674;17.954;2023-07-29T01:10:31;17.70;99.90
21255;DHT22;10785;50.674;17.954;2023-07-29T01:13:08;17.60;99.90
21255;DHT22;10785;50.674;17.954;2023-07-29T01:15:47;17.60;99.90
21255;DHT22;10785;50.674;17.954;2023-07-29T01:18:23;17.60;99.90
21255;DHT22;10785;50.674;17.954;2023-07-29T01:20:59;17.60;99.90
21255;DHT22;10785;50.674;17.954;2023-07-29T01:23:31;17.50;99.90
21255;DHT22;10785;50.674;17.954;2023-07-29T01:26:00;17.50;99.90
21255;DHT22;10785;50.674;17.954;2023-07-29T01:28:29;17.40;99.90
21255;DHT22;10785;50.674;17.954;2023-07-29T01:31:03;17.50;99.90
21255;DHT22;10785;50.674;17.954;2023-07-29T01:33:40;17.50;99.90
21255;DHT22;10785;50.674;17.954;2023-07-29T01:36:15;17.40;99.90
21255;DHT22;10785;50.674;17.954;2023-07-29T01:38:48;17.40;99.90
21255;DHT22;10785;50.674;17.954;2023-07-29T01:41:18;17.40;99.90
21255;DHT22;10785;50.674;17.954;2023-07-29T01:43:47;17.40;99.90
21255;DHT22;10785;50.674;17.954;2023-07-29T01:46:16;17.30;99.90
21255;DHT22;10785;50.674;17.954;2023-07-29T01:48:47;17.30;99.90
21255;DHT22;10785;50.674;17.954;2023-07-29T01:51:16;17.30;99.90
21255;DHT22;10785;50.674;17.954;2023-07-29T01:53:44;17.20;99.90
21255;DHT22;10785;50.674;17.954;2023-07-29T01:56:14;17.20;99.90
21255;DHT22;10785;50.674;17.954;2023-07-29T01:58:51;17.20;99.90
21255;DHT22;10785;50.674;17.954;2023-07-29T02:01:20;17.30;99.90
21255;DHT22;10785;50.674;17.954;2023-07-29T02:03:48;17.30;99.90
21255;DHT22;10785;50.674;17.954;2023-07-29T02:06:22;17.20;99.90
21255;DHT22;10785;50.674;17.954;2023-07-29T02:08:51;17.20;99.90
21255;DHT22;10785;50.674;17.954;2023-07-29T02:11:21;17.30;99.90
21255;DHT22;10785;50.674;17.954;2023-07-29T02:13:56;17.30;99.90
21255;DHT22;10785;50.674;17.954;2023-07-29T02:16:25;17.30;99.90
21255;DHT22;10785;50.674;17.954;2023-07-29T02:18:54;17.30;99.90
21255;DHT22;10785;50.674;17.954;2023-07-29T02:21:23;17.30;99.90
21255;DHT22;10785;50.674;17.954;2023-07-29T02:23:52;17.20;99.90
21255;DHT22;10785;50.674;17.954;2023-07-29T02:26:22;17.20;99.90
21255;DHT22;10785;50.674;17.954;2023-07-29T02:28:51;17.20;99.90
21255;DHT22;10785;50.674;17.954;2023-07-29T02:31:21;17.20;99.90
21255;DHT22;10785;50.674;17.954;2023-07-29T02:33:50;17.30;99.90
21255;DHT22;10785;50.674;17.954;2023-07-29T02:36:19;17.30;99.90
21255;DHT22;10785;50.674;17.954;2023-07-29T02:38:48;17.20;99.90
21255;DHT22;10785;50.674;17.954;2023-07-29T02:41:17;17.20;99.90
21255;DHT22;10785;50.674;17.954;2023-07-29T02:43:50;17.20;99.90
21255;DHT22;10785;50.674;17.954;2023-07-29T02:46:18;17.20;99.90
21255;DHT22;10785;50.674;17.954;2023-07-29T02:48:47;17.10;99.90
21255;DHT22;10785;50.674;17.954;2023-07-29T02:51:16;17.10;99.90
21255;DHT22;10785;50.674;17.954;2023-07-29T02:53:45;17.00;99.90
21255;DHT22;10785;50.674;17.954;2023-07-29T02:56:14;17.00;99.90
21255;DHT22;10785;50.674;17.954;2023-07-29T02:58:42;17.00;99.90
21255;DHT22;10785;50.674;17.954;2023-07-29T03:01:13;16.90;99.90
21255;DHT22;10785;50.674;17.954;2023-07-29T03:03:42;16.90;99.90
21255;DHT22;10785;50.674;17.954;2023-07-29T03:06:12;16.90;99.90
21255;DHT22;10785;50.674;17.954;2023-07-29T03:08:41;16.90;99.90
21255;DHT22;10785;50.674;17.954;2023-07-29T03:11:12;16.90;99.90
21255;DHT22;10785;50.674;17.954;2023-07-29T03:13:41;16.90;99.90
21255;DHT22;10785;50.674;17.954;2023-07-29T03:16:13;16.90;99.90
21255;DHT22;10785;50.674;17.954;2023-07-29T03:18:48;16.90;99.90
21255;DHT22;10785;50.674;17.954;2023-07-29T03:21:20;16.90;99.90
21255;DHT22;10785;50.674;17.954;2023-07-29T03:23:50;16.90;99.90
21255;DHT22;10785;50.674;17.954;2023-07-29T03:26:22;16.90;99.90
21255;DHT22;10785;50.674;17.954;2023-07-29T03:28:54;17.00;99.90
21255;DHT22;10785;50.674;17.954;2023-07-29T03:31:24;17.00;99.90
21255;DHT22;10785;50.674;17.954;2023-07-29T03:33:53;17.00;99.90
21255;DHT22;10785;50.674;17.954;2023-07-29T03:36:21;17.10;99.90
21255;DHT22;10785;50.674;17.954;2023-07-29T03:38:54;17.40;99.90
21255;DHT22;10785;50.674;17.954;2023-07-29T03:41:24;17.90;99.90
21255;DHT22;10785;50.674;17.954;2023-07-29T03:43:53;18.40;99.90
21255;DHT22;10785;50.674;17.954;2023-07-29T03:46:24;19.00;99.90
21255;DHT22;10785;50.674;17.954;2023-07-29T03:48:54;19.50;99.90
21255;DHT22;10785;50.674;17.954;2023-07-29T03:51:22;19.90;99.90
21255;DHT22;10785;50.674;17.954;2023-07-29T03:53:52;20.00;99.90
21255;DHT22;10785;50.674;17.954;2023-07-29T03:56:20;20.20;99.90
21255;DHT22;10785;50.674;17.954;2023-07-29T03:58:52;20.20;99.90
21255;DHT22;10785;50.674;17.954;2023-07-29T04:01:25;20.20;99.90
21255;DHT22;10785;50.674;17.954;2023-07-29T04:03:54;20.20;99.90
21255;DHT22;10785;50.674;17.954;2023-07-29T04:06:26;20.20;99.90
21255;DHT22;10785;50.674;17.954;2023-07-29T04:08:55;20.50;99.90
21255;DHT22;10785;50.674;17.954;2023-07-29T04:11:27;20.70;99.90
21255;DHT22;10785;50.674;17.954;2023-07-29T04:13:55;20.60;99.90
21255;DHT22;10785;50.674;17.954;2023-07-29T04:16:26;20.50;99.90
21255;DHT22;10785;50.674;17.954;2023-07-29T04:18:56;20.60;99.90
21255;DHT22;10785;50.674;17.954;2023-07-29T04:21:27;20.70;99.90
21255;DHT22;10785;50.674;17.954;2023-07-29T04:23:56;21.20;99.90
21255;DHT22;10785;50.674;17.954;2023-07-29T04:26:25;21.50;99.90
21255;DHT22;10785;50.674;17.954;2023-07-29T04:28:53;21.60;99.90
21255;DHT22;10785;50.674;17.954;2023-07-29T04:31:28;21.60;99.90
21255;DHT22;10785;50.674;17.954;2023-07-29T04:33:56;21.80;99.90
21255;DHT22;10785;50.674;17.954;2023-07-29T04:36:26;21.80;99.90
21255;DHT22;10785;50.674;17.954;2023-07-29T04:38:55;21.70;99.90
21255;DHT22;10785;50.674;17.954;2023-07-29T04:41:23;21.70;99.90
21255;DHT22;10785;50.674;17.954;2023-07-29T04:43:54;21.50;99.90
21255;DHT22;10785;50.674;17.954;2023-07-29T04:46:23;21.30;99.90
21255;DHT22;10785;50.674;17.954;2023-07-29T04:48:54;21.10;99.90
21255;DHT22;10785;50.674;17.954;2023-07-29T04:51:23;21.00;99.90
21255;DHT22;10785;50.674;17.954;2023-07-29T04:53:52;21.00;99.90
21255;DHT22;10785;50.674;17.954;2023-07-29T04:56:20;21.00;99.90
21255;DHT22;10785;50.674;17.954;2023-07-29T04:58:49;21.00;99.90
21255;DHT22;10785;50.674;17.954;2023-07-29T05:01:17;21.00;99.90
21255;DHT22;10785;50.674;17.954;2023-07-29T05:03:46;21.10;99.90
21255;DHT22;10785;50.674;17.954;2023-07-29T05:06:16;21.60;99.90
21255;DHT22;10785;50.674;17.954;2023-07-29T05:08:45;22.50;99.90
21255;DHT22;10785;50.674;17.954;2023-07-29T05:11:13;23.40;99.90
21255;DHT22;10785;50.674;17.954;2023-07-29T05:13:42;23.80;99.90
21255;DHT22;10785;50.674;17.954;2023-07-29T05:16:12;23.70;99.90
21255;DHT22;10785;50.674;17.954;2023-07-29T05:18:42;23.40;99.90
21255;DHT22;10785;50.674;17.954;2023-07-29T05:21:11;23.30;99.90
21255;DHT22;10785;50.674;17.954;2023-07-29T05:23:43;23.00;99.90
21255;DHT22;10785;50.674;17.954;2023-07-29T05:26:11;23.00;99.90
21255;DHT22;10785;50.674;17.954;2023-07-29T05:28:40;23.00;99.90
21255;DHT22;10785;50.674;17.954;2023-07-29T05:31:08;23.00;99.90
21255;DHT22;10785;50.674;17.954;2023-07-29T05:33:37;23.20;99.90
21255;DHT22;10785;50.674;17.954;2023-07-29T05:36:07;23.80;99.90
21255;DHT22;10785;50.674;17.954;2023-07-29T05:38:35;24.40;99.90
21255;DHT22;10785;50.674;17.954;2023-07-29T05:43:34;25.60;99.90
21255;DHT22;10785;50.674;17.954;2023-07-29T05:46:03;26.60;99.90
21255;DHT22;10785;50.674;17.954;2023-07-29T05:48:31;27.00;99.90
21255;DHT22;10785;50.674;17.954;2023-07-29T05:51:02;27.40;96.90
21255;DHT22;10785;50.674;17.954;2023-07-29T05:53:32;28.00;94.40
21255;DHT22;10785;50.674;17.954;2023-07-29T05:56:01;28.70;87.60
21255;DHT22;10785;50.674;17.954;2023-07-29T05:58:31;29.00;82.70
21255;DHT22;10785;50.674;17.954;2023-07-29T06:01:00;29.30;74.60
21255;DHT22;10785;50.674;17.954;2023-07-29T06:03:31;29.50;67.10
21255;DHT22;10785;50.674;17.954;2023-07-29T06:06:03;30.00;62.50
21255;DHT22;10785;50.674;17.954;2023-07-29T06:08:32;30.10;55.70
21255;DHT22;10785;50.674;17.954;2023-07-29T06:11:02;30.30;51.80
21255;DHT22;10785;50.674;17.954;2023-07-29T06:13:34;29.80;59.50
21255;DHT22;10785;50.674;17.954;2023-07-29T06:16:03;29.60;62.90
21255;DHT22;10785;50.674;17.954;2023-07-29T06:18:33;29.80;58.70
21255;DHT22;10785;50.674;17.954;2023-07-29T06:21:11;29.90;58.40
21255;DHT22;10785;50.674;17.954;2023-07-29T06:23:44;30.40;51.10
21255;DHT22;10785;50.674;17.954;2023-07-29T06:26:13;30.30;52.70
21255;DHT22;10785;50.674;17.954;2023-07-29T06:28:43;30.20;53.60
21255;DHT22;10785;50.674;17.954;2023-07-29T06:31:12;30.20;55.00
21255;DHT22;10785;50.674;17.954;2023-07-29T06:33:40;30.10;55.00
21255;DHT22;10785;50.674;17.954;2023-07-29T06:36:09;30.50;47.60
21255;DHT22;10785;50.674;17.954;2023-07-29T06:38:37;30.80;43.60
21255;DHT22;10785;50.674;17.954;2023-07-29T06:41:06;30.70;44.60
21255;DHT22;10785;50.674;17.954;2023-07-29T06:43:35;30.80;38.30
21255;DHT22;10785;50.674;17.954;2023-07-29T06:46:06;31.20;33.90
21255;DHT22;10785;50.674;17.954;2023-07-29T06:48:35;31.30;30.70
21255;DHT22;10785;50.674;17.954;2023-07-29T06:51:05;31.30;29.90
21255;DHT22;10785;50.674;17.954;2023-07-29T06:53:35;31.30;29.50
21255;DHT22;10785;50.674;17.954;2023-07-29T06:56:06;31.10;33.40
21255;DHT22;10785;50.674;17.954;2023-07-29T06:58:35;31.10;34.10
21255;DHT22;10785;50.674;17.954;2023-07-29T07:01:06;30.70;39.80
21255;DHT22;10785;50.674;17.954;2023-07-29T07:03:37;30.30;44.80
21255;DHT22;10785;50.674;17.954;2023-07-29T07:06:06;29.60;56.90
21255;DHT22;10785;50.674;17.954;2023-07-29T07:08:35;29.10;64.10
21255;DHT22;10785;50.674;17.954;2023-07-29T07:11:03;28.40;80.40
21255;DHT22;10785;50.674;17.954;2023-07-29T07:13:32;27.80;89.30
21255;DHT22;10785;50.674;17.954;2023-07-29T07:16:01;26.90;94.70
21255;DHT22;10785;50.674;17.954;2023-07-29T07:18:30;26.40;96.40
21255;DHT22;10785;50.674;17.954;2023-07-29T07:20:59;26.70;96.60
21255;DHT22;10785;50.674;17.954;2023-07-29T07:23:28;27.20;95.70
21255;DHT22;10785;50.674;17.954;2023-07-29T07:25:57;27.60;93.80
21255;DHT22;10785;50.674;17.954;2023-07-29T07:28:25;28.00;90.20
21255;DHT22;10785;50.674;17.954;2023-07-29T07:30:54;28.10;84.10
21255;DHT22;10785;50.674;17.954;2023-07-29T07:33:23;28.10;82.60
21255;DHT22;10785;50.674;17.954;2023-07-29T07:35:52;27.70;87.30
21255;DHT22;10785;50.674;17.954;2023-07-29T07:38:22;27.60;91.80
21255;DHT22;10785;50.674;17.954;2023-07-29T07:40:54;27.30;93.20
21255;DHT22;10785;50.674;17.954;2023-07-29T07:43:23;27.70;92.50
21255;DHT22;10785;50.674;17.954;2023-07-29T07:45:57;27.90;89.90
21255;DHT22;10785;50.674;17.954;2023-07-29T07:48:27;28.10;84.10
21255;DHT22;10785;50.674;17.954;2023-07-29T07:50:55;27.90;86.10
21255;DHT22;10785;50.674;17.954;2023-07-29T07:53:25;26.90;93.90
21255;DHT22;10785;50.674;17.954;2023-07-29T07:55:54;26.70;95.50
21255;DHT22;10785;50.674;17.954;2023-07-29T07:58:22;26.90;95.50
21255;DHT22;10785;50.674;17.954;2023-07-29T08:00:51;26.50;94.80
21255;DHT22;10785;50.674;17.954;2023-07-29T08:03:20;26.40;96.30
21255;DHT22;10785;50.674;17.954;2023-07-29T08:05:48;26.80;95.40
21255;DHT22;10785;50.674;17.954;2023-07-29T08:08:17;27.10;91.80
21255;DHT22;10785;50.674;17.954;2023-07-29T08:10:47;27.10;92.40
21255;DHT22;10785;50.674;17.954;2023-07-29T08:13:16;27.20;92.40
21255;DHT22;10785;50.674;17.954;2023-07-29T08:15:46;26.70;91.50
21255;DHT22;10785;50.674;17.954;2023-07-29T08:18:15;26.80;94.30
21255;DHT22;10785;50.674;17.954;2023-07-29T08:20:52;26.90;92.70
21255;DHT22;10785;50.674;17.954;2023-07-29T08:23:21;27.20;91.70
21255;DHT22;10785;50.674;17.954;2023-07-29T08:25:53;26.90;91.30
21255;DHT22;10785;50.674;17.954;2023-07-29T08:28:23;26.50;93.30
21255;DHT22;10785;50.674;17.954;2023-07-29T08:30:52;26.30;94.40
21255;DHT22;10785;50.674;17.954;2023-07-29T08:33:21;26.50;95.20
21255;DHT22;10785;50.674;17.954;2023-07-29T08:35:49;26.40;95.30
21255;DHT22;10785;50.674;17.954;2023-07-29T08:38:18;26.40;95.10
21255;DHT22;10785;50.674;17.954;2023-07-29T08:40:50;26.40;95.80
21255;DHT22;10785;50.674;17.954;2023-07-29T08:43:26;26.30;97.00
21255;DHT22;10785;50.674;17.954;2023-07-29T08:45:57;26.20;96.10
21255;DHT22;10785;50.674;17.954;2023-07-29T08:48:32;26.20;96.60
21255;DHT22;10785;50.674;17.954;2023-07-29T08:51:03;26.20;95.80
21255;DHT22;10785;50.674;17.954;2023-07-29T08:53:32;26.20;94.60
21255;DHT22;10785;50.674;17.954;2023-07-29T08:56:01;26.10;95.80
21255;DHT22;10785;50.674;17.954;2023-07-29T08:58:31;26.10;95.70
21255;DHT22;10785;50.674;17.954;2023-07-29T09:01:01;26.10;97.10
21255;DHT22;10785;50.674;17.954;2023-07-29T09:03:30;26.10;97.00
21255;DHT22;10785;50.674;17.954;2023-07-29T09:05:59;26.10;96.70
21255;DHT22;10785;50.674;17.954;2023-07-29T09:08:30;26.00;96.30
21255;DHT22;10785;50.674;17.954;2023-07-29T09:10:59;26.10;95.10
21255;DHT22;10785;50.674;17.954;2023-07-29T09:13:28;26.20;93.70
21255;DHT22;10785;50.674;17.954;2023-07-29T09:15:58;26.50;92.90
21255;DHT22;10785;50.674;17.954;2023-07-29T09:18:27;26.90;89.10
21255;DHT22;10785;50.674;17.954;2023-07-29T09:20:59;27.00;83.40
21255;DHT22;10785;50.674;17.954;2023-07-29T09:23:28;26.90;89.10
21255;DHT22;10785;50.674;17.954;2023-07-29T09:26:03;27.10;92.60
21255;DHT22;10785;50.674;17.954;2023-07-29T09:28:33;27.40;89.70
21255;DHT22;10785;50.674;17.954;2023-07-29T09:31:04;27.40;76.70
21255;DHT22;10785;50.674;17.954;2023-07-29T09:33:35;27.40;82.70
21255;DHT22;10785;50.674;17.954;2023-07-29T09:36:09;27.40;85.60
21255;DHT22;10785;50.674;17.954;2023-07-29T09:38:38;27.40;84.10
21255;DHT22;10785;50.674;17.954;2023-07-29T09:41:07;27.20;86.50
21255;DHT22;10785;50.674;17.954;2023-07-29T09:43:35;27.00;85.10
21255;DHT22;10785;50.674;17.954;2023-07-29T09:46:06;26.80;87.60
21255;DHT22;10785;50.674;17.954;2023-07-29T09:48:36;26.90;88.20
21255;DHT22;10785;50.674;17.954;2023-07-29T09:51:11;27.10;90.00
21255;DHT22;10785;50.674;17.954;2023-07-29T09:53:45;27.20;84.70
21255;DHT22;10785;50.674;17.954;2023-07-29T09:56:15;27.50;86.10
21255;DHT22;10785;50.674;17.954;2023-07-29T09:58:44;27.90;77.30
21255;DHT22;10785;50.674;17.954;2023-07-29T10:01:18;28.10;65.00
21255;DHT22;10785;50.674;17.954;2023-07-29T10:03:47;28.30;60.40
21255;DHT22;10785;50.674;17.954;2023-07-29T10:06:17;28.40;65.10
21255;DHT22;10785;50.674;17.954;2023-07-29T10:08:47;28.40;62.30
21255;DHT22;10785;50.674;17.954;2023-07-29T10:11:17;28.40;65.00
21255;DHT22;10785;50.674;17.954;2023-07-29T10:13:48;28.30;60.40
21255;DHT22;10785;50.674;17.954;2023-07-29T10:16:34;28.10;59.60
21255;DHT22;10785;50.674;17.954;2023-07-29T10:19:05;27.90;67.50
21255;DHT22;10785;50.674;17.954;2023-07-29T10:21:37;28.10;64.50
21255;DHT22;10785;50.674;17.954;2023-07-29T10:24:11;28.30;64.90
21255;DHT22;10785;50.674;17.954;2023-07-29T10:26:42;28.40;61.20
21255;DHT22;10785;50.674;17.954;2023-07-29T10:29:14;28.50;59.40
21255;DHT22;10785;50.674;17.954;2023-07-29T10:31:48;28.50;58.10
21255;DHT22;10785;50.674;17.954;2023-07-29T10:34:20;28.20;57.90
21255;DHT22;10785;50.674;17.954;2023-07-29T10:36:50;28.10;62.20
21255;DHT22;10785;50.674;17.954;2023-07-29T10:39:20;27.90;67.00
21255;DHT22;10785;50.674;17.954;2023-07-29T10:41:56;27.90;63.50
21255;DHT22;10785;50.674;17.954;2023-07-29T10:44:50;27.90;64.40
21255;DHT22;10785;50.674;17.954;2023-07-29T10:47:23;27.60;68.00
21255;DHT22;10785;50.674;17.954;2023-07-29T10:49:53;27.30;79.70
21255;DHT22;10785;50.674;17.954;2023-07-29T10:52:30;27.30;80.30
21255;DHT22;10785;50.674;17.954;2023-07-29T10:54:59;27.40;77.30
21255;DHT22;10785;50.674;17.954;2023-07-29T10:57:31;27.30;74.90
21255;DHT22;10785;50.674;17.954;2023-07-29T11:00:02;27.20;79.50
21255;DHT22;10785;50.674;17.954;2023-07-29T11:02:36;27.30;77.70
21255;DHT22;10785;50.674;17.954;2023-07-29T11:05:06;27.50;77.00
21255;DHT22;10785;50.674;17.954;2023-07-29T11:07:45;27.70;71.80
21255;DHT22;10785;50.674;17.954;2023-07-29T11:10:15;27.90;67.00
21255;DHT22;10785;50.674;17.954;2023-07-29T11:12:46;28.30;61.30
21255;DHT22;10785;50.674;17.954;2023-07-29T11:15:23;28.50;59.00
21255;DHT22;10785;50.674;17.954;2023-07-29T11:17:55;28.60;56.30
21255;DHT22;10785;50.674;17.954;2023-07-29T11:20:25;28.40;54.60
21255;DHT22;10785;50.674;17.954;2023-07-29T11:22:55;28.20;55.30
21255;DHT22;10785;50.674;17.954;2023-07-29T11:25:28;28.00;61.70
21255;DHT22;10785;50.674;17.954;2023-07-29T11:27:58;28.30;53.70
21255;DHT22;10785;50.674;17.954;2023-07-29T11:30:32;28.70;47.50
21255;DHT22;10785;50.674;17.954;2023-07-29T11:33:03;28.90;44.30
21255;DHT22;10785;50.674;17.954;2023-07-29T11:35:32;29.00;43.90
21255;DHT22;10785;50.674;17.954;2023-07-29T11:38:01;29.10;47.20
21255;DHT22;10785;50.674;17.954;2023-07-29T11:40:30;29.20;41.30
21255;DHT22;10785;50.674;17.954;2023-07-29T11:42:58;29.10;38.20
21255;DHT22;10785;50.674;17.954;2023-07-29T11:45:27;29.20;45.40
21255;DHT22;10785;50.674;17.954;2023-07-29T11:48:17;29.10;46.80
21255;DHT22;10785;50.674;17.954;2023-07-29T11:50:46;29.30;30.60
21255;DHT22;10785;50.674;17.954;2023-07-29T11:53:15;29.40;27.20
21255;DHT22;10785;50.674;17.954;2023-07-29T11:55:44;29.40;30.00
21255;DHT22;10785;50.674;17.954;2023-07-29T11:58:12;29.50;27.10
21255;DHT22;10785;50.674;17.954;2023-07-29T12:00:41;29.70;26.10
21255;DHT22;10785;50.674;17.954;2023-07-29T12:03:10;29.30;28.30
21255;DHT22;10785;50.674;17.954;2023-07-29T12:05:40;28.90;32.80
21255;DHT22;10785;50.674;17.954;2023-07-29T12:08:09;28.50;39.10
21255;DHT22;10785;50.674;17.954;2023-07-29T12:10:38;28.20;41.50
21255;DHT22;10785;50.674;17.954;2023-07-29T12:13:08;28.00;46.80
21255;DHT22;10785;50.674;17.954;2023-07-29T12:15:38;28.00;45.80
21255;DHT22;10785;50.674;17.954;2023-07-29T12:18:08;28.00;51.00
21255;DHT22;10785;50.674;17.954;2023-07-29T12:20:36;28.20;49.40
21255;DHT22;10785;50.674;17.954;2023-07-29T12:23:07;28.60;45.50
21255;DHT22;10785;50.674;17.954;2023-07-29T12:25:35;29.10;32.00
21255;DHT22;10785;50.674;17.954;2023-07-29T12:28:05;29.40;24.80
21255;DHT22;10785;50.674;17.954;2023-07-29T12:30:41;29.40;20.60
21255;DHT22;10785;50.674;17.954;2023-07-29T12:33:10;29.30;18.00
21255;DHT22;10785;50.674;17.954;2023-07-29T12:35:39;29.30;16.30
21255;DHT22;10785;50.674;17.954;2023-07-29T12:38:09;29.40;12.90
21255;DHT22;10785;50.674;17.954;2023-07-29T12:40:38;29.40;10.30
21255;DHT22;10785;50.674;17.954;2023-07-29T12:43:09;29.60;11.70
21255;DHT22;10785;50.674;17.954;2023-07-29T12:45:38;29.60;12.70
21255;DHT22;10785;50.674;17.954;2023-07-29T12:48:07;29.50;13.70
21255;DHT22;10785;50.674;17.954;2023-07-29T12:50:36;29.60;13.40
21255;DHT22;10785;50.674;17.954;2023-07-29T12:53:09;29.60;12.70
21255;DHT22;10785;50.674;17.954;2023-07-29T12:55:38;29.70;11.70
21255;DHT22;10785;50.674;17.954;2023-07-29T12:58:07;29.50;10.10
21255;DHT22;10785;50.674;17.954;2023-07-29T13:00:35;29.60;9.10
21255;DHT22;10785;50.674;17.954;2023-07-29T13:03:05;29.50;11.00
21255;DHT22;10785;50.674;17.954;2023-07-29T13:05:34;29.20;17.20
21255;DHT22;10785;50.674;17.954;2023-07-29T13:08:02;29.20;22.60
21255;DHT22;10785;50.674;17.954;2023-07-29T13:10:32;29.30;15.20
21255;DHT22;10785;50.674;17.954;2023-07-29T13:13:01;29.40;13.10
21255;DHT22;10785;50.674;17.954;2023-07-29T13:15:29;29.40;16.50
21255;DHT22;10785;50.674;17.954;2023-07-29T13:17:58;29.60;13.50
21255;DHT22;10785;50.674;17.954;2023-07-29T13:20:27;29.80;13.40
21255;DHT22;10785;50.674;17.954;2023-07-29T13:22:59;29.70;10.70
21255;DHT22;10785;50.674;17.954;2023-07-29T13:25:28;29.50;13.60
21255;DHT22;10785;50.674;17.954;2023-07-29T13:27:58;29.40;16.40
21255;DHT22;10785;50.674;17.954;2023-07-29T13:30:27;29.20;21.90
21255;DHT22;10785;50.674;17.954;2023-07-29T13:32:56;29.10;22.80
21255;DHT22;10785;50.674;17.954;2023-07-29T13:35:25;29.10;24.20
21255;DHT22;10785;50.674;17.954;2023-07-29T13:38:03;29.30;20.20
21255;DHT22;10785;50.674;17.954;2023-07-29T13:40:32;29.20;24.90
21255;DHT22;10785;50.674;17.954;2023-07-29T13:43:05;29.20;26.60
21255;DHT22;10785;50.674;17.954;2023-07-29T13:45:34;29.00;22.90
21255;DHT22;10785;50.674;17.954;2023-07-29T13:48:03;29.20;22.00
21255;DHT22;10785;50.674;17.954;2023-07-29T13:50:32;29.20;22.10
21255;DHT22;10785;50.674;17.954;2023-07-29T13:53:07;29.10;25.90
21255;DHT22;10785;50.674;17.954;2023-07-29T13:55:36;29.20;27.30
21255;DHT22;10785;50.674;17.954;2023-07-29T13:58:06;29.30;28.40
21255;DHT22;10785;50.674;17.954;2023-07-29T14:00:34;29.20;27.70
21255;DHT22;10785;50.674;17.954;2023-07-29T14:03:03;29.60;25.20
21255;DHT22;10785;50.674;17.954;2023-07-29T14:05:32;29.60;24.50
21255;DHT22;10785;50.674;17.954;2023-07-29T14:08:00;29.70;22.60
21255;DHT22;10785;50.674;17.954;2023-07-29T14:10:29;29.30;21.90
21255;DHT22;10785;50.674;17.954;2023-07-29T14:12:57;29.10;23.60
21255;DHT22;10785;50.674;17.954;2023-07-29T14:15:27;29.20;25.40
21255;DHT22;10785;50.674;17.954;2023-07-29T14:17:56;28.70;26.90
21255;DHT22;10785;50.674;17.954;2023-07-29T14:20:25;28.40;34.30
21255;DHT22;10785;50.674;17.954;2023-07-29T14:22:53;28.50;37.30
21255;DHT22;10785;50.674;17.954;2023-07-29T14:25:22;28.70;36.10
21255;DHT22;10785;50.674;17.954;2023-07-29T14:27:52;28.80;32.50
21255;DHT22;10785;50.674;17.954;2023-07-29T14:30:20;29.00;30.20
21255;DHT22;10785;50.674;17.954;2023-07-29T14:32:50;29.00;28.60
21255;DHT22;10785;50.674;17.954;2023-07-29T14:35:19;29.20;30.50
21255;DHT22;10785;50.674;17.954;2023-07-29T14:37:47;29.50;32.60
21255;DHT22;10785;50.674;17.954;2023-07-29T14:40:16;29.60;27.00
21255;DHT22;10785;50.674;17.954;2023-07-29T14:42:45;29.70;27.30
21255;DHT22;10785;50.674;17.954;2023-07-29T14:45:14;29.50;25.50
21255;DHT22;10785;50.674;17.954;2023-07-29T14:47:43;29.40;26.60
21255;DHT22;10785;50.674;17.954;2023-07-29T14:50:13;29.30;27.00
21255;DHT22;10785;50.674;17.954;2023-07-29T14:52:42;29.10;27.30
21255;DHT22;10785;50.674;17.954;2023-07-29T14:55:10;29.20;26.00
21255;DHT22;10785;50.674;17.954;2023-07-29T14:57:40;29.20;28.30
21255;DHT22;10785;50.674;17.954;2023-07-29T15:00:10;29.20;28.00
21255;DHT22;10785;50.674;17.954;2023-07-29T15:02:40;29.10;30.30
21255;DHT22;10785;50.674;17.954;2023-07-29T15:05:09;28.90;33.20
21255;DHT22;10785;50.674;17.954;2023-07-29T15:07:39;28.90;36.30
21255;DHT22;10785;50.674;17.954;2023-07-29T15:10:08;28.90;33.50
21255;DHT22;10785;50.674;17.954;2023-07-29T15:12:36;28.80;33.20
21255;DHT22;10785;50.674;17.954;2023-07-29T15:15:06;28.70;36.30
21255;DHT22;10785;50.674;17.954;2023-07-29T15:17:35;28.40;41.00
21255;DHT22;10785;50.674;17.954;2023-07-29T15:20:06;28.40;41.60
21255;DHT22;10785;50.674;17.954;2023-07-29T15:22:35;28.30;41.50
21255;DHT22;10785;50.674;17.954;2023-07-29T15:25:05;28.30;46.00
21255;DHT22;10785;50.674;17.954;2023-07-29T15:27:34;28.20;42.90
21255;DHT22;10785;50.674;17.954;2023-07-29T15:30:04;28.10;46.20
21255;DHT22;10785;50.674;17.954;2023-07-29T15:32:33;27.90;46.20
21255;DHT22;10785;50.674;17.954;2023-07-29T15:35:02;27.70;49.90